Time;durP1;ratioP1;P1;durP2;ratioP2;P2;SDS_P1;SDS_P2;PMS_P1;PMS_P2;Temp;Humidity;BMP_temperature;BMP_pressure;BME280_temperature;BME280_humidity;BME280_pressure;Samples;Min_cycle;Max_cycle;Signal;HPM_P1;HPM_P2
2023/03/03 00:00:42;;;;;;;46.50;29.77;;;5.40;86.30;;;;;;5076559;28;20468;-56
2023/03/03 00:03:12;;;;;;;47.73;29.60;;;5.40;86.40;;;;;;5076356;28;21016;-56
2023/03/03 00:05:38;;;;;;;44.53;29.43;;;5.40;86.60;;;;;;5076292;28;20794;-56
2023/03/03 00:08:05;;;;;;;45.77;28.03;;;5.40;86.80;;;;;;5076493;28;20448;-56
2023/03/03 00:10:32;;;;;;;45.60;29.30;;;5.30;86.90;;;;;;5076252;28;20487;-56
2023/03/03 00:13:00;;;;;;;51.10;30.20;;;5.30;87.00;;;;;;5076158;28;20451;-56
2023/03/03 00:15:27;;;;;;;52.40;30.53;;;5.30;87.20;;;;;;5076381;28;20480;-56
2023/03/03 00:17:55;;;;;;;49.00;31.03;;;5.20;87.40;;;;;;5077142;28;20480;-56
2023/03/03 00:20:40;;;;;;;50.80;30.90;;;5.20;87.70;;;;;;5075889;28;21005;-56
2023/03/03 00:23:23;;;;;;;47.53;29.87;;;5.20;88.00;;;;;;5076182;28;20472;-56
2023/03/03 00:25:52;;;;;;;46.47;30.27;;;5.20;88.30;;;;;;5076365;28;20436;-56
2023/03/03 00:28:28;;;;;;;51.57;31.90;;;5.10;88.30;;;;;;5076211;28;20449;-56
2023/03/03 00:30:56;;;;;;;52.20;31.87;;;5.10;88.30;;;;;;5076011;28;20839;-56
2023/03/03 00:33:31;;;;;;;49.00;29.30;;;5.10;88.20;;;;;;5075656;28;20926;-56
2023/03/03 00:36:06;;;;;;;53.73;31.17;;;5.00;88.10;;;;;;5075942;28;20478;-56
2023/03/03 00:38:35;;;;;;;48.03;30.27;;;5.00;88.30;;;;;;5075660;28;20902;-56
2023/03/03 00:41:04;;;;;;;56.93;32.57;;;5.00;88.40;;;;;;5075753;28;20551;-56
2023/03/03 00:43:36;;;;;;;50.60;29.90;;;5.00;88.60;;;;;;5075269;28;20538;-56
2023/03/03 00:46:02;;;;;;;53.40;31.47;;;4.90;88.80;;;;;;5075569;28;20910;-56
2023/03/03 00:48:42;;;;;;;59.60;35.73;;;4.90;88.90;;;;;;5075379;28;20848;-56
2023/03/03 00:51:20;;;;;;;55.50;31.40;;;4.90;89.40;;;;;;5076492;28;20480;-56
2023/03/03 00:53:47;;;;;;;58.43;31.97;;;4.80;89.70;;;;;;5075598;28;20425;-56
2023/03/03 00:56:14;;;;;;;63.40;34.43;;;4.80;90.20;;;;;;5075616;28;20447;-56
2023/03/03 00:58:43;;;;;;;57.63;34.47;;;4.80;90.70;;;;;;5075471;28;20523;-56
2023/03/03 01:01:09;;;;;;;64.67;32.93;;;4.80;91.00;;;;;;5075090;28;20986;-56
2023/03/03 01:03:37;;;;;;;67.47;36.60;;;4.70;91.40;;;;;;5075068;28;20488;-56
2023/03/03 01:06:04;;;;;;;58.80;33.30;;;4.70;91.90;;;;;;5075376;28;20506;-56
2023/03/03 01:08:31;;;;;;;60.37;32.20;;;4.70;92.30;;;;;;5075430;28;20440;-56
2023/03/03 01:11:03;;;;;;;60.43;33.60;;;4.70;92.60;;;;;;5074882;28;20491;-56
2023/03/03 01:13:34;;;;;;;62.43;34.27;;;4.70;92.80;;;;;;5075324;28;20425;-57
2023/03/03 01:16:01;;;;;;;62.03;32.60;;;4.70;92.90;;;;;;5074925;28;20433;-56
2023/03/03 01:18:29;;;;;;;62.37;35.00;;;4.70;92.90;;;;;;5075124;28;20444;-56
2023/03/03 01:20:57;;;;;;;70.10;35.70;;;4.70;93.00;;;;;;5075094;28;20464;-56
2023/03/03 01:23:24;;;;;;;65.23;32.30;;;4.70;93.10;;;;;;5075002;28;20506;-56
2023/03/03 01:25:50;;;;;;;71.47;35.10;;;4.70;93.30;;;;;;5074972;28;20815;-56
2023/03/03 01:28:17;;;;;;;58.97;33.20;;;4.60;93.60;;;;;;5074979;28;20447;-56
2023/03/03 01:30:44;;;;;;;61.10;35.20;;;4.60;93.70;;;;;;5074866;28;20887;-56
2023/03/03 01:33:11;;;;;;;59.10;33.30;;;4.60;93.80;;;;;;5074773;28;20441;-56
2023/03/03 01:35:39;;;;;;;67.00;34.67;;;4.70;93.90;;;;;;5074727;28;20444;-56
2023/03/03 01:38:07;;;;;;;69.97;34.10;;;4.70;94.10;;;;;;5074927;28;20484;-56
2023/03/03 01:40:34;;;;;;;64.37;32.83;;;4.60;94.10;;;;;;5074997;28;20468;-57
2023/03/03 01:43:01;;;;;;;66.10;35.40;;;4.60;94.20;;;;;;5075757;28;20480;-57
2023/03/03 01:45:29;;;;;;;64.50;33.30;;;4.60;94.20;;;;;;5075985;28;20444;-57
2023/03/03 01:48:01;;;;;;;61.03;34.00;;;4.70;94.20;;;;;;5075014;28;20448;-57
2023/03/03 01:50:37;;;;;;;64.40;32.37;;;4.60;94.30;;;;;;5074726;28;20472;-56
2023/03/03 01:53:12;;;;;;;71.00;34.20;;;4.70;94.30;;;;;;5074285;28;20482;-57
2023/03/03 01:55:42;;;;;;;75.23;36.97;;;4.70;94.30;;;;;;5074072;28;20474;-56
2023/03/03 01:58:11;;;;;;;64.03;34.43;;;4.70;94.20;;;;;;5074371;28;20452;-56
2023/03/03 02:00:40;;;;;;;67.97;35.87;;;4.80;94.30;;;;;;5074116;28;20475;-56
2023/03/03 02:03:07;;;;;;;65.07;33.43;;;4.80;94.20;;;;;;5074110;28;20495;-57
2023/03/03 02:05:35;;;;;;;65.30;35.23;;;4.80;94.20;;;;;;5074295;28;20539;-56
2023/03/03 02:08:02;;;;;;;63.10;34.20;;;4.80;94.20;;;;;;5073837;28;20451;-56
2023/03/03 02:10:31;;;;;;;76.63;37.37;;;4.80;94.30;;;;;;5074134;28;20473;-56
2023/03/03 02:12:59;;;;;;;62.50;32.07;;;4.80;94.40;;;;;;5075002;28;20444;-57
2023/03/03 02:15:30;;;;;;;60.17;33.43;;;4.80;94.30;;;;;;5073995;28;20480;-57
2023/03/03 02:18:00;;;;;;;70.90;32.77;;;4.80;94.30;;;;;;5074933;28;20437;-57
2023/03/03 02:20:41;;;;;;;66.93;34.50;;;4.80;94.30;;;;;;5073945;28;20538;-57
2023/03/03 02:23:13;;;;;;;74.97;37.23;;;4.90;94.40;;;;;;5073838;28;20469;-57
2023/03/03 02:25:49;;;;;;;79.30;37.80;;;4.90;94.40;;;;;;5073744;28;20937;-57
2023/03/03 02:28:17;;;;;;;77.10;37.40;;;4.80;94.20;;;;;;5073889;28;20452;-56
2023/03/03 02:30:44;;;;;;;62.37;34.90;;;4.80;94.30;;;;;;5073644;28;20473;-56
2023/03/03 02:33:11;;;;;;;63.33;32.73;;;4.80;94.40;;;;;;5073701;28;20808;-57
2023/03/03 02:35:40;;;;;;;66.87;32.60;;;4.80;94.40;;;;;;5073606;28;20452;-56
2023/03/03 02:38:14;;;;;;;57.67;30.83;;;4.80;94.40;;;;;;5073581;28;20447;-56
2023/03/03 02:40:47;;;;;;;62.27;32.70;;;4.80;94.40;;;;;;5073692;28;20946;-56
2023/03/03 02:43:19;;;;;;;63.80;32.37;;;4.80;94.40;;;;;;5073636;28;20522;-57
2023/03/03 02:45:45;;;;;;;60.23;30.93;;;4.70;94.40;;;;;;5073415;28;20972;-56
2023/03/03 02:48:12;;;;;;;63.00;33.20;;;4.70;94.50;;;;;;5073522;28;20453;-56
2023/03/03 02:50:39;;;;;;;59.53;32.97;;;4.60;94.60;;;;;;5073567;28;20471;-56
2023/03/03 02:53:05;;;;;;;67.77;33.53;;;4.60;94.60;;;;;;5073444;28;20444;-56
2023/03/03 02:55:32;;;;;;;62.90;31.77;;;4.60;94.80;;;;;;5073460;28;20867;-56
2023/03/03 02:57:59;;;;;;;64.70;35.00;;;4.60;94.90;;;;;;5073456;28;20445;-57
2023/03/03 03:00:27;;;;;;;69.40;32.53;;;4.60;94.90;;;;;;5073627;28;20469;-56
2023/03/03 03:02:53;;;;;;;73.00;34.37;;;4.60;94.90;;;;;;5073349;28;20901;-56
2023/03/03 03:05:20;;;;;;;61.03;31.23;;;4.60;94.90;;;;;;5073132;28;20448;-56
2023/03/03 03:07:47;;;;;;;74.37;35.27;;;4.50;95.00;;;;;;5073060;28;20942;-56
2023/03/03 03:10:14;;;;;;;70.30;35.40;;;4.50;95.10;;;;;;5072994;28;20484;-56
2023/03/03 03:12:40;;;;;;;72.63;34.70;;;4.50;95.20;;;;;;5073245;28;20449;-56
2023/03/03 03:15:09;;;;;;;69.57;33.90;;;4.60;95.20;;;;;;5073200;28;20461;-56
2023/03/03 03:17:38;;;;;;;75.93;36.80;;;4.60;95.20;;;;;;5073193;28;20531;-56
2023/03/03 03:20:05;;;;;;;56.50;32.80;;;4.60;95.20;;;;;;5073123;28;20460;-57
2023/03/03 03:22:32;;;;;;;72.13;34.73;;;4.60;95.10;;;;;;5073148;28;20823;-56
2023/03/03 03:24:59;;;;;;;61.40;32.97;;;4.60;95.10;;;;;;5072897;28;20456;-56
2023/03/03 03:27:25;;;;;;;64.83;33.60;;;4.60;95.10;;;;;;5072804;28;20930;-56
2023/03/03 03:29:52;;;;;;;56.70;29.83;;;4.60;95.10;;;;;;5072694;28;20978;-56
2023/03/03 03:32:19;;;;;;;64.20;32.13;;;4.60;95.10;;;;;;5073023;28;20449;-56
2023/03/03 03:34:47;;;;;;;56.07;29.77;;;4.60;95.10;;;;;;5072640;28;20942;-57
2023/03/03 03:37:14;;;;;;;59.27;31.90;;;4.50;95.20;;;;;;5072881;28;20449;-56
2023/03/03 03:39:41;;;;;;;64.43;31.17;;;4.50;95.40;;;;;;5072968;28;20471;-56
2023/03/03 03:42:07;;;;;;;58.70;30.70;;;4.40;95.40;;;;;;5072658;28;20867;-56
2023/03/03 03:44:35;;;;;;;58.73;30.60;;;4.40;95.50;;;;;;5072873;28;20484;-56
2023/03/03 03:47:01;;;;;;;61.03;33.00;;;4.50;95.60;;;;;;5072533;28;20801;-56
2023/03/03 03:49:28;;;;;;;56.60;31.77;;;4.50;95.70;;;;;;5072812;28;20476;-56
2023/03/03 03:51:56;;;;;;;54.13;30.00;;;4.50;95.60;;;;;;5072886;28;20486;-56
2023/03/03 03:54:23;;;;;;;58.27;30.00;;;4.50;95.60;;;;;;5072881;28;20444;-56
2023/03/03 03:56:50;;;;;;;57.53;30.60;;;4.60;95.60;;;;;;5072543;28;20938;-56
2023/03/03 03:59:16;;;;;;;64.23;31.37;;;4.60;95.50;;;;;;5072704;28;20464;-56
2023/03/03 04:01:43;;;;;;;58.63;30.57;;;4.60;95.50;;;;;;5072792;28;20444;-56
2023/03/03 04:04:10;;;;;;;60.60;30.50;;;4.60;95.40;;;;;;5072658;28;20476;-56
2023/03/03 04:06:36;;;;;;;52.90;29.53;;;4.60;95.30;;;;;;5072737;28;20449;-56
2023/03/03 04:09:04;;;;;;;49.93;27.07;;;4.60;95.40;;;;;;5072539;28;20456;-56
2023/03/03 04:11:31;;;;;;;61.13;31.50;;;4.50;95.50;;;;;;5072742;28;20444;-56
2023/03/03 04:13:58;;;;;;;53.43;29.00;;;4.50;95.70;;;;;;5072400;28;20957;-56
2023/03/03 04:16:25;;;;;;;57.27;28.40;;;4.50;95.80;;;;;;5072658;28;20444;-56
2023/03/03 04:18:51;;;;;;;55.50;30.47;;;4.50;95.80;;;;;;5075951;28;20465;-57
2023/03/03 04:21:18;;;;;;;55.33;28.00;;;4.50;95.70;;;;;;5076236;28;20457;-56
2023/03/03 04:23:45;;;;;;;55.57;28.93;;;4.40;95.80;;;;;;5076101;28;20484;-56
2023/03/03 04:26:13;;;;;;;56.50;29.57;;;4.40;96.00;;;;;;5076010;28;20497;-56
2023/03/03 04:28:40;;;;;;;55.50;29.27;;;4.40;96.00;;;;;;5076092;28;20459;-57
2023/03/03 04:31:06;;;;;;;54.03;28.13;;;4.40;96.00;;;;;;5076310;28;20468;-56
2023/03/03 04:33:33;;;;;;;53.10;29.90;;;4.40;96.00;;;;;;5076661;28;20436;-57
2023/03/03 04:36:00;;;;;;;63.13;32.57;;;4.50;95.90;;;;;;5076444;28;20448;-57
2023/03/03 04:38:27;;;;;;;54.63;29.70;;;4.50;95.90;;;;;;5076379;28;20847;-56
2023/03/03 04:40:53;;;;;;;60.00;30.93;;;4.50;95.90;;;;;;5076063;28;20469;-56
2023/03/03 04:43:21;;;;;;;56.17;30.93;;;4.50;96.00;;;;;;5075759;28;21020;-56
2023/03/03 04:45:48;;;;;;;59.90;30.30;;;4.50;96.00;;;;;;5075812;28;20453;-56
2023/03/03 04:48:15;;;;;;;55.90;30.50;;;4.50;96.00;;;;;;5075935;28;20475;-56
2023/03/03 04:50:42;;;;;;;58.00;31.23;;;4.60;96.00;;;;;;5075783;28;20543;-56
2023/03/03 04:53:09;;;;;;;53.20;28.87;;;4.60;95.90;;;;;;5075868;28;20452;-56
2023/03/03 04:55:37;;;;;;;54.03;30.00;;;4.60;95.80;;;;;;5075424;28;20825;-56
2023/03/03 04:58:04;;;;;;;55.77;29.83;;;4.60;95.90;;;;;;5075647;28;20479;-56
2023/03/03 05:00:32;;;;;;;52.77;29.03;;;4.60;96.20;;;;;;5075695;28;20472;-56
2023/03/03 05:02:59;;;;;;;51.57;28.83;;;4.60;95.80;;;;;;5075570;28;20457;-56
2023/03/03 05:05:26;;;;;;;51.97;28.87;;;4.60;95.80;;;;;;5075505;28;20512;-56
2023/03/03 05:07:52;;;;;;;55.87;31.40;;;4.60;95.90;;;;;;5075440;28;20449;-56
2023/03/03 05:10:19;;;;;;;56.83;31.60;;;4.60;95.80;;;;;;5075248;28;20483;-56
2023/03/03 05:12:46;;;;;;;51.07;30.27;;;4.60;95.80;;;;;;5075372;28;20444;-56
2023/03/03 05:15:13;;;;;;;51.60;27.67;;;4.70;95.90;;;;;;5075434;28;20441;-56
2023/03/03 05:17:41;;;;;;;52.50;27.90;;;4.70;95.90;;;;;;5075108;28;20935;-56
2023/03/03 05:20:09;;;;;;;60.90;31.60;;;4.70;95.80;;;;;;5075258;28;20471;-56
2023/03/03 05:22:36;;;;;;;53.83;29.90;;;4.70;95.80;;;;;;5075195;28;20457;-56
2023/03/03 05:25:03;;;;;;;56.60;29.27;;;4.70;95.80;;;;;;5075066;28;20480;-56
2023/03/03 05:27:30;;;;;;;54.53;31.60;;;4.70;95.80;;;;;;5074925;28;20445;-56
2023/03/03 05:29:57;;;;;;;51.83;29.03;;;4.70;95.70;;;;;;5075272;28;20475;-56
2023/03/03 05:32:23;;;;;;;48.97;27.93;;;4.70;95.60;;;;;;5075340;28;20471;-56
2023/03/03 05:34:51;;;;;;;55.57;29.73;;;4.70;95.60;;;;;;5074825;28;20840;-56
2023/03/03 05:37:18;;;;;;;53.77;30.20;;;4.70;95.50;;;;;;5075110;28;20477;-56
2023/03/03 05:39:47;;;;;;;52.87;27.57;;;4.70;95.30;;;;;;5074912;28;20589;-56
2023/03/03 05:42:14;;;;;;;53.60;28.80;;;4.70;95.20;;;;;;5074823;28;20449;-55
2023/03/03 05:44:41;;;;;;;58.57;31.13;;;4.70;95.10;;;;;;5074411;28;20477;-56
2023/03/03 05:47:08;;;;;;;53.67;28.93;;;4.70;95.10;;;;;;5074605;28;20558;-56
2023/03/03 05:49:35;;;;;;;53.03;30.10;;;4.70;95.10;;;;;;5074524;28;20473;-56
2023/03/03 05:52:03;;;;;;;53.43;28.90;;;4.60;95.10;;;;;;5074516;28;20522;-56
2023/03/03 05:54:31;;;;;;;49.50;27.53;;;4.60;95.00;;;;;;5074411;28;20824;-56
2023/03/03 05:56:58;;;;;;;55.73;30.17;;;4.60;95.10;;;;;;5074550;28;20445;-56
2023/03/03 05:59:24;;;;;;;51.20;27.83;;;4.60;95.10;;;;;;5074001;28;20981;-56
2023/03/03 06:01:51;;;;;;;54.50;29.83;;;4.60;95.10;;;;;;5074338;28;20460;-56
2023/03/03 06:04:18;;;;;;;54.77;27.30;;;4.60;95.20;;;;;;5073971;28;20898;-57
2023/03/03 06:06:45;;;;;;;54.47;29.27;;;4.60;95.20;;;;;;5074186;28;20449;-56
2023/03/03 06:09:13;;;;;;;48.60;29.40;;;4.50;95.30;;;;;;5073725;28;20843;-56
2023/03/03 06:11:39;;;;;;;54.67;28.60;;;4.50;95.30;;;;;;5074131;28;20449;-56
2023/03/03 06:14:06;;;;;;;47.23;27.63;;;4.50;95.20;;;;;;5074095;28;20448;-56
2023/03/03 06:16:33;;;;;;;48.03;26.63;;;4.50;95.30;;;;;;5074051;28;20449;-56
2023/03/03 06:19:00;;;;;;;47.67;27.83;;;4.50;95.50;;;;;;5073650;28;20938;-56
2023/03/03 06:21:27;;;;;;;43.53;24.60;;;4.50;95.60;;;;;;5073916;28;20457;-56
2023/03/03 06:23:53;;;;;;;48.07;26.50;;;4.40;95.60;;;;;;5073874;28;20890;-56
2023/03/03 06:26:22;;;;;;;150.90;33.87;;;4.40;95.60;;;;;;5073697;28;20453;-55
2023/03/03 06:28:49;;;;;;;44.67;25.13;;;4.40;95.40;;;;;;5073365;28;20548;-55
2023/03/03 06:31:15;;;;;;;46.67;23.90;;;4.50;95.30;;;;;;5073742;28;20449;-56
2023/03/03 06:33:42;;;;;;;51.00;26.40;;;4.50;95.20;;;;;;5073804;28;20467;-56
2023/03/03 06:36:09;;;;;;;49.37;25.57;;;4.40;95.20;;;;;;5073697;28;20447;-56
2023/03/03 06:38:36;;;;;;;55.13;27.00;;;4.50;95.20;;;;;;5073361;28;20934;-56
2023/03/03 06:41:06;;;;;;;43.87;24.70;;;4.40;95.20;;;;;;5072792;28;20837;-56
2023/03/03 06:43:34;;;;;;;54.03;26.90;;;4.40;95.20;;;;;;5073591;28;20449;-55
2023/03/03 06:46:01;;;;;;;52.20;25.37;;;4.40;95.20;;;;;;5073543;28;20452;-56
2023/03/03 06:48:27;;;;;;;50.40;26.00;;;4.30;95.20;;;;;;5073001;28;20901;-56
2023/03/03 06:50:54;;;;;;;54.40;28.87;;;4.30;95.40;;;;;;5073180;28;20982;-56
2023/03/03 06:53:21;;;;;;;52.70;27.47;;;4.20;95.60;;;;;;5073299;28;20444;-56
2023/03/03 06:55:48;;;;;;;45.93;25.30;;;4.30;95.60;;;;;;5073306;28;20444;-56
2023/03/03 06:58:17;;;;;;;44.53;24.83;;;4.20;95.80;;;;;;5073305;28;20456;-55
2023/03/03 07:00:49;;;;;;;50.63;25.00;;;4.20;96.00;;;;;;5073355;28;20477;-55
2023/03/03 07:03:18;;;;;;;49.30;25.17;;;4.20;95.90;;;;;;5073427;28;20468;-55
2023/03/03 07:05:45;;;;;;;47.20;24.23;;;4.30;95.90;;;;;;5073299;28;20492;-55
2023/03/03 07:08:16;;;;;;;42.77;25.00;;;4.30;95.80;;;;;;5073216;28;20526;-55
2023/03/03 07:10:43;;;;;;;49.50;26.30;;;4.30;95.90;;;;;;5072983;28;20481;-56
2023/03/03 07:13:28;;;;;;;44.17;25.20;;;4.20;95.90;;;;;;5072972;28;20448;-55
2023/03/03 07:15:59;;;;;;;42.13;23.80;;;4.30;96.30;;;;;;5072934;28;20990;-55
2023/03/03 07:18:40;;;;;;;45.00;25.83;;;4.30;96.30;;;;;;5073250;28;20440;-55
2023/03/03 07:21:16;;;;;;;46.60;24.83;;;4.40;96.10;;;;;;5073313;28;20492;-55
2023/03/03 07:23:44;;;;;;;42.77;24.13;;;4.40;96.10;;;;;;5073940;28;20420;-56
2023/03/03 07:26:13;;;;;;;44.57;24.67;;;4.40;95.80;;;;;;5073863;28;20476;-56
2023/03/03 07:28:47;;;;;;;38.90;22.20;;;4.40;95.80;;;;;;5073649;28;20524;-55
2023/03/03 07:31:27;;;;;;;41.87;22.07;;;4.50;95.70;;;;;;5073240;28;20975;-55
2023/03/03 07:33:55;;;;;;;45.17;24.67;;;4.50;95.60;;;;;;5072938;28;20887;-55
2023/03/03 07:36:30;;;;;;;39.17;22.60;;;4.60;95.50;;;;;;5073340;28;20452;-55
2023/03/03 07:38:59;;;;;;;38.50;22.17;;;4.60;95.50;;;;;;5073257;28;20435;-56
2023/03/03 07:41:27;;;;;;;34.90;20.27;;;4.60;95.40;;;;;;5073224;28;20449;-56
2023/03/03 07:43:55;;;;;;;42.33;22.87;;;4.70;95.30;;;;;;5073013;28;20453;-55
2023/03/03 07:46:30;;;;;;;35.03;19.73;;;4.80;95.10;;;;;;5073171;28;20453;-56
2023/03/03 07:48:58;;;;;;;38.17;22.07;;;4.80;94.80;;;;;;5073100;28;20429;-56
2023/03/03 07:51:27;;;;;;;35.57;20.30;;;4.70;94.50;;;;;;5073180;28;20455;-55
2023/03/03 07:54:00;;;;;;;35.63;18.67;;;4.70;94.40;;;;;;5076650;28;20448;-55
2023/03/03 07:56:30;;;;;;;31.20;18.23;;;4.70;94.20;;;;;;5076853;28;20435;-56
2023/03/03 07:58:57;;;;;;;35.47;19.93;;;4.70;94.00;;;;;;5076688;28;20456;-56
2023/03/03 08:01:38;;;;;;;36.77;20.03;;;4.70;94.10;;;;;;5076553;28;20444;-55
2023/03/03 08:04:13;;;;;;;32.10;18.83;;;4.80;94.10;;;;;;5076498;28;20433;-55
2023/03/03 08:06:53;;;;;;;37.63;20.53;;;4.70;93.90;;;;;;5076477;28;20435;-55
2023/03/03 08:09:31;;;;;;;39.37;20.47;;;4.80;94.00;;;;;;5076707;28;20850;-56
2023/03/03 08:12:01;;;;;;;38.07;19.57;;;4.80;93.80;;;;;;5076472;28;20471;-56
2023/03/03 08:14:30;;;;;;;36.47;19.40;;;4.80;93.70;;;;;;5076500;28;20437;-56
2023/03/03 08:16:59;;;;;;;38.30;21.43;;;4.70;93.90;;;;;;5076331;28;20448;-55
2023/03/03 08:19:26;;;;;;;37.57;20.10;;;4.70;94.00;;;;;;5076232;28;20464;-56
2023/03/03 08:21:58;;;;;;;38.37;20.30;;;4.70;94.00;;;;;;5076952;28;20448;-55
2023/03/03 08:24:26;;;;;;;38.90;21.33;;;4.80;93.90;;;;;;5075930;28;20839;-55
2023/03/03 08:26:53;;;;;;;44.40;23.40;;;4.80;93.90;;;;;;5076216;28;20452;-56
2023/03/03 08:29:19;;;;;;;38.80;22.40;;;4.80;93.80;;;;;;5076005;28;20476;-56
2023/03/03 08:31:47;;;;;;;34.30;19.83;;;4.90;93.80;;;;;;5075732;28;20446;-55
2023/03/03 08:34:15;;;;;;;46.20;23.10;;;4.90;93.70;;;;;;5075881;28;20452;-56
2023/03/03 08:36:41;;;;;;;40.67;21.87;;;4.90;93.70;;;;;;5075811;28;20452;-56
2023/03/03 08:39:09;;;;;;;42.27;21.27;;;4.90;93.60;;;;;;5075973;28;20448;-56
2023/03/03 08:41:35;;;;;;;42.20;23.60;;;4.90;93.60;;;;;;5075912;28;20544;-56
2023/03/03 08:44:02;;;;;;;43.80;23.10;;;4.90;93.70;;;;;;5075505;28;20488;-56
2023/03/03 08:46:29;;;;;;;38.17;22.23;;;4.90;93.60;;;;;;5075875;28;20484;-56
2023/03/03 08:48:56;;;;;;;45.50;23.77;;;4.90;93.50;;;;;;5075695;28;20449;-56
2023/03/03 08:51:25;;;;;;;44.47;23.77;;;4.90;93.70;;;;;;5075687;28;20449;-56
2023/03/03 08:53:51;;;;;;;44.70;22.93;;;4.90;93.70;;;;;;5075549;28;20460;-55
2023/03/03 08:56:18;;;;;;;43.47;24.57;;;4.90;93.60;;;;;;5075738;28;20441;-55
2023/03/03 08:58:46;;;;;;;40.33;23.33;;;5.00;93.70;;;;;;5075605;28;20445;-55
2023/03/03 09:01:14;;;;;;;41.37;23.07;;;5.00;93.70;;;;;;5075469;28;20472;-56
2023/03/03 09:03:41;;;;;;;41.07;24.27;;;5.10;93.60;;;;;;5074891;28;20983;-55
2023/03/03 09:06:08;;;;;;;44.97;24.93;;;5.20;93.30;;;;;;5075537;28;20486;-56
2023/03/03 09:08:36;;;;;;;54.43;28.03;;;5.10;93.30;;;;;;5075620;28;20475;-56
2023/03/03 09:11:03;;;;;;;57.77;29.17;;;5.10;93.30;;;;;;5075052;28;21012;-56
2023/03/03 09:13:30;;;;;;;45.33;25.67;;;5.20;93.50;;;;;;5075251;28;20448;-56
2023/03/03 09:15:58;;;;;;;48.27;23.80;;;5.20;93.30;;;;;;5075337;28;20527;-56
2023/03/03 09:18:31;;;;;;;51.33;28.30;;;5.30;93.20;;;;;;5075300;28;20487;-56
2023/03/03 09:20:58;;;;;;;53.37;28.47;;;5.40;93.00;;;;;;5075226;28;20492;-55
2023/03/03 09:23:35;;;;;;;59.97;29.23;;;5.40;92.90;;;;;;5075160;28;20558;-55
2023/03/03 09:26:30;;;;;;;58.73;29.70;;;5.40;92.90;;;;;;5075110;28;20464;-55
2023/03/03 09:29:16;;;;;;;63.17;30.93;;;5.40;92.90;;;;;;5039475;28;20798;-56
2023/03/03 09:31:44;;;;;;;66.90;29.57;;;5.40;92.70;;;;;;5075118;28;20425;-55
2023/03/03 09:34:20;;;;;;;60.27;32.00;;;5.40;92.90;;;;;;5074915;28;20445;-55
2023/03/03 09:36:48;;;;;;;59.53;30.70;;;5.40;92.80;;;;;;5074945;28;20486;-55
2023/03/03 09:39:19;;;;;;;56.43;29.93;;;5.50;92.80;;;;;;5074421;28;21060;-56
2023/03/03 09:42:12;;;;;;;63.63;30.53;;;5.50;92.40;;;;;;5074595;28;20468;-56
2023/03/03 09:44:56;;;;;;;55.30;27.50;;;5.50;92.30;;;;;;5074279;28;20775;-56
2023/03/03 09:47:41;;;;;;;55.83;29.70;;;5.60;92.40;;;;;;5075256;28;20770;-56
2023/03/03 09:50:19;;;;;;;56.50;29.87;;;5.60;92.30;;;;;;5074683;28;20476;-56
2023/03/03 09:52:52;;;;;;;54.30;29.80;;;5.70;92.20;;;;;;5074309;28;20925;-56
2023/03/03 09:55:32;;;;;;;53.93;30.97;;;5.80;92.10;;;;;;5074597;28;20483;-56
2023/03/03 09:58:17;;;;;;;60.07;31.00;;;5.90;91.90;;;;;;5074553;28;20443;-56
2023/03/03 10:00:52;;;;;;;59.40;30.90;;;6.00;91.70;;;;;;5074540;28;20472;-56
2023/03/03 10:03:45;;;;;;;57.03;30.67;;;6.00;91.50;;;;;;5074558;28;20440;-56
2023/03/03 10:06:21;;;;;;;63.90;32.20;;;6.10;91.40;;;;;;5074439;28;20569;-56
2023/03/03 10:08:58;;;;;;;64.00;32.93;;;6.20;91.20;;;;;;5074343;28;20432;-56
2023/03/03 10:11:35;;;;;;;55.97;29.87;;;6.20;91.10;;;;;;5074454;28;20436;-55
2023/03/03 10:14:22;;;;;;;57.43;30.17;;;6.20;90.60;;;;;;5074313;28;20433;-56
2023/03/03 10:17:09;;;;;;;54.00;29.33;;;6.30;90.60;;;;;;5075197;28;20926;-56
2023/03/03 10:19:39;;;;;;;58.10;31.63;;;6.40;90.50;;;;;;5075082;28;21000;-56
2023/03/03 10:22:19;;;;;;;63.47;32.17;;;6.40;90.20;;;;;;5076089;28;20475;-56
2023/03/03 10:25:02;;;;;;;57.53;30.93;;;6.50;90.10;;;;;;5075886;28;20433;-56
2023/03/03 10:27:43;;;;;;;58.70;31.80;;;6.60;90.10;;;;;;5074873;28;20626;-57
2023/03/03 10:30:21;;;;;;;66.57;33.27;;;6.60;90.00;;;;;;5074169;28;20484;-56
2023/03/03 10:32:51;;;;;;;55.50;29.10;;;6.70;89.90;;;;;;5074021;28;20439;-56
2023/03/03 10:35:36;;;;;;;56.43;30.43;;;6.70;89.40;;;;;;5074093;28;20486;-56
2023/03/03 10:38:38;;;;;;;53.20;29.53;;;6.70;88.80;;;;;;5073889;28;20440;-56
2023/03/03 10:41:24;;;;;;;49.90;28.53;;;6.80;88.40;;;;;;5037719;28;20563;-56
2023/03/03 10:44:03;;;;;;;51.87;27.60;;;6.80;88.00;;;;;;5073926;28;20429;-56
2023/03/03 10:46:45;;;;;;;54.77;29.40;;;6.90;87.90;;;;;;5073618;28;20469;-56
2023/03/03 10:49:26;;;;;;;51.37;27.53;;;7.00;87.90;;;;;;5073988;28;20473;-56
2023/03/03 10:52:16;;;;;;;54.27;28.60;;;7.20;87.70;;;;;;5073250;28;20844;-56
2023/03/03 10:55:05;;;;;;;62.37;31.93;;;7.30;86.80;;;;;;5073520;28;20491;-56
2023/03/03 10:57:38;;;;;;;60.07;32.60;;;7.40;85.50;;;;;;5073159;28;20774;-56
2023/03/03 11:00:18;;;;;;;81.03;43.60;;;7.40;84.90;;;;;;5073395;28;20467;-56
2023/03/03 11:03:11;;;;;;;72.97;39.50;;;7.40;84.60;;;;;;5073203;28;20429;-57
2023/03/03 11:05:42;;;;;;;64.57;36.60;;;7.50;84.50;;;;;;5073569;28;20471;-57
2023/03/03 11:08:14;;;;;;;66.93;35.27;;;7.50;84.40;;;;;;5073417;28;20428;-56
2023/03/03 11:10:58;;;;;;;61.07;33.70;;;7.60;84.00;;;;;;5073203;28;20476;-56
2023/03/03 11:13:33;;;;;;;63.30;35.03;;;7.60;83.40;;;;;;5073400;28;20453;-56
2023/03/03 11:16:19;;;;;;;76.50;39.50;;;7.60;83.30;;;;;;5073271;28;20428;-56
2023/03/03 11:19:05;;;;;;;83.17;41.57;;;7.60;82.40;;;;;;5073278;28;20429;-56
2023/03/03 11:21:40;;;;;;;82.63;42.27;;;7.60;82.50;;;;;;5073296;28;20440;-57
2023/03/03 11:24:41;;;;;;;74.90;38.97;;;7.60;82.60;;;;;;5073332;28;20436;-57
2023/03/03 11:27:20;;;;;;;71.30;38.90;;;7.60;82.60;;;;;;5075848;28;20471;-57
2023/03/03 11:30:00;;;;;;;74.43;40.23;;;7.60;82.50;;;;;;5077434;28;20541;-57
2023/03/03 11:32:37;;;;;;;79.67;43.17;;;7.60;82.10;;;;;;5077579;28;20437;-57
2023/03/03 11:35:19;;;;;;;87.07;45.57;;;7.70;83.10;;;;;;5077253;28;20424;-57
2023/03/03 11:37:56;;;;;;;90.80;45.97;;;7.80;82.30;;;;;;5077142;28;20424;-57
2023/03/03 11:40:28;;;;;;;82.17;42.80;;;7.80;81.70;;;;;;5077601;28;20817;-57
2023/03/03 11:43:05;;;;;;;82.30;44.67;;;7.90;82.00;;;;;;5077074;28;20444;-57
2023/03/03 11:45:39;;;;;;;63.73;37.73;;;7.90;81.80;;;;;;5077580;28;20468;-57
2023/03/03 11:48:13;;;;;;;64.30;36.90;;;8.00;81.60;;;;;;5077042;28;20428;-57
2023/03/03 11:50:48;;;;;;;73.83;39.57;;;8.00;80.90;;;;;;5076900;28;20468;-57
2023/03/03 11:53:32;;;;;;;75.00;40.70;;;8.10;80.60;;;;;;5076887;28;20432;-57
2023/03/03 11:56:07;;;;;;;77.10;39.90;;;8.10;79.80;;;;;;5076809;28;20429;-57
2023/03/03 11:58:41;;;;;;;75.70;39.90;;;8.20;79.80;;;;;;5076720;28;20424;-57
2023/03/03 12:01:17;;;;;;;88.00;44.80;;;8.30;79.70;;;;;;5076668;28;20467;-57
2023/03/03 12:03:49;;;;;;;78.63;43.53;;;8.30;79.30;;;;;;5076505;28;20448;-57
2023/03/03 12:06:25;;;;;;;76.40;42.90;;;8.30;78.90;;;;;;5076578;28;20468;-57
2023/03/03 12:09:09;;;;;;;74.67;40.37;;;8.40;78.50;;;;;;5076405;28;20437;-59
2023/03/03 12:11:45;;;;;;;70.70;39.27;;;8.40;78.10;;;;;;5076209;28;20440;-57
2023/03/03 12:14:22;;;;;;;76.20;41.07;;;8.40;77.70;;;;;;5076556;28;20424;-57
2023/03/03 12:16:54;;;;;;;75.33;41.53;;;8.40;77.60;;;;;;5076885;28;20807;-57
2023/03/03 12:19:34;;;;;;;75.17;39.87;;;8.50;77.60;;;;;;5076681;28;20471;-57
2023/03/03 12:22:21;;;;;;;75.57;40.20;;;8.50;76.90;;;;;;5076861;28;20471;-57
2023/03/03 12:25:22;;;;;;;77.83;42.33;;;8.60;76.70;;;;;;5076257;28;20819;-57
2023/03/03 12:27:54;;;;;;;72.50;43.50;;;8.60;76.60;;;;;;5076267;28;20440;-57
2023/03/03 12:30:36;;;;;;;70.40;39.67;;;8.70;76.30;;;;;;5076109;28;20517;-57
2023/03/03 12:33:12;;;;;;;67.70;38.13;;;8.70;76.10;;;;;;5076139;28;20429;-57
2023/03/03 12:35:46;;;;;;;69.10;36.80;;;8.70;76.20;;;;;;5075536;28;20879;-57
2023/03/03 12:38:23;;;;;;;66.30;35.93;;;8.70;76.20;;;;;;5075345;28;20436;-57
2023/03/03 12:41:00;;;;;;;79.47;43.57;;;8.80;77.10;;;;;;5075891;28;20551;-57
2023/03/03 12:43:43;;;;;;;89.77;46.27;;;8.80;76.00;;;;;;5075841;28;20475;-57
2023/03/03 12:46:19;;;;;;;76.23;42.23;;;8.90;75.60;;;;;;5075838;28;20468;-58
2023/03/03 12:48:47;;;;;;;66.97;37.73;;;8.90;75.10;;;;;;5075867;28;20841;-58
2023/03/03 12:51:24;;;;;;;67.33;39.00;;;8.90;74.90;;;;;;5075610;28;20479;-58
2023/03/03 12:54:17;;;;;;;60.20;34.33;;;9.00;75.00;;;;;;5075382;28;20433;-58
2023/03/03 12:56:48;;;;;;;57.03;31.80;;;9.00;74.70;;;;;;5075734;28;20465;-57